createdAt,value
2019-06-26T00:03:04.907Z,22.4
2019-06-26T00:08:05.154Z,22.3
2019-06-26T00:13:05.121Z,22.3
2019-06-26T00:18:05.122Z,22.2
2019-06-26T00:23:05.155Z,22.1
2019-06-26T00:28:05.047Z,22
2019-06-26T00:33:05.114Z,22
2019-06-26T00:38:04.971Z,21.9
2019-06-26T00:43:05.194Z,21.9
2019-06-26T00:48:05.074Z,21.8
2019-06-26T00:53:05.157Z,21.8
2019-06-26T00:58:04.957Z,21.7
2019-06-26T01:03:04.952Z,21.6
2019-06-26T01:08:05.167Z,21.6
2019-06-26T01:13:04.957Z,21.5
2019-06-26T01:18:05.095Z,21.5
2019-06-26T01:23:05.158Z,21.4
2019-06-26T01:28:05.195Z,21.4
2019-06-26T01:33:05.110Z,21.3
2019-06-26T01:38:05.157Z,21.2
2019-06-26T01:43:05.190Z,21.2
2019-06-26T01:48:05.115Z,21.1
2019-06-26T01:53:05.151Z,21
2019-06-26T01:58:04.977Z,21
2019-06-26T02:03:05.226Z,21
2019-06-26T02:08:05.153Z,20.9
2019-06-26T02:13:05.182Z,20.9
2019-06-26T02:18:05.112Z,20.8
2019-06-26T02:23:05.146Z,20.7
2019-06-26T02:28:05.183Z,20.7
2019-06-26T02:33:05.142Z,20.6
2019-06-26T02:38:05.119Z,20.5
2019-06-26T02:43:06.918Z,20.5
2019-06-26T02:48:05.226Z,20.5
2019-06-26T02:53:05.174Z,20.5
2019-06-26T02:58:05.022Z,20.4
2019-06-26T03:03:05.224Z,20.4
2019-06-26T03:08:05.027Z,20.4
2019-06-26T03:13:05.189Z,20.4
2019-06-26T03:18:05.218Z,20.3
2019-06-26T03:23:05.154Z,20.3
2019-06-26T03:28:05.187Z,20.3
2019-06-26T03:33:05.168Z,20.2
2019-06-26T03:38:05.162Z,20.3
2019-06-26T03:43:05.060Z,20.3
2019-06-26T03:48:05.181Z,20.3
2019-06-26T03:53:05.047Z,20.6
2019-06-26T03:58:05.053Z,21.2
2019-06-26T04:03:05.192Z,21.8
2019-06-26T04:08:05.181Z,22.4
2019-06-26T04:13:05.189Z,22.5
2019-06-26T04:18:05.193Z,22.5
2019-06-26T04:23:05.191Z,22.5
2019-06-26T04:28:06.393Z,22.5
2019-06-26T04:33:05.182Z,22.6
2019-06-26T04:38:05.205Z,22.7
2019-06-26T04:43:05.094Z,22.8
2019-06-26T04:48:07.161Z,22.9
2019-06-26T04:53:05.208Z,22.9
2019-06-26T04:58:05.110Z,23
2019-06-26T05:03:05.142Z,23.1
2019-06-26T05:08:05.253Z,23.2
2019-06-26T05:13:05.113Z,23.3
2019-06-26T05:18:05.222Z,23.6
2019-06-26T05:23:05.258Z,23.7
2019-06-26T05:28:08.171Z,23.9
2019-06-26T05:33:05.238Z,24.3
2019-06-26T05:38:05.252Z,24.5
2019-06-26T05:43:05.225Z,24.8
2019-06-26T05:48:05.336Z,25.1
2019-06-26T05:53:05.257Z,25.3
2019-06-26T05:58:05.302Z,25.6
2019-06-26T06:03:05.346Z,25.9
2019-06-26T06:08:05.362Z,26.2
2019-06-26T06:13:05.259Z,26.4
2019-06-26T06:18:05.327Z,26.6
2019-06-26T06:23:05.366Z,26.9
2019-06-26T06:28:05.299Z,27.2
2019-06-26T06:33:05.267Z,27.4
2019-06-26T06:38:05.146Z,27.7
2019-06-26T06:43:05.295Z,27.9
2019-06-26T06:48:05.326Z,28.2
2019-06-26T06:53:05.164Z,28.4
2019-06-26T06:58:05.480Z,28.6
2019-06-26T07:03:05.178Z,28.9
2019-06-26T07:08:05.157Z,29.1
2019-06-26T07:13:05.153Z,29.3
2019-06-26T07:18:05.325Z,29.6
2019-06-26T07:23:05.293Z,29.8
2019-06-26T07:28:05.450Z,30
2019-06-26T07:33:05.325Z,30
2019-06-26T07:38:05.301Z,30.2
2019-06-26T07:43:05.207Z,30.4
2019-06-26T07:48:05.323Z,30.6
2019-06-26T07:53:05.351Z,30.8
2019-06-26T07:58:05.164Z,31.1
2019-06-26T08:03:05.201Z,31.3
2019-06-26T08:08:05.377Z,31.5
2019-06-26T08:13:05.408Z,31.7
2019-06-26T08:18:05.440Z,31.7
2019-06-26T08:23:05.363Z,31.6
2019-06-26T08:28:05.209Z,31.5
2019-06-26T08:33:05.438Z,31.7
2019-06-26T08:38:11.236Z,31.7
2019-06-26T08:43:05.396Z,31.9
2019-06-26T08:48:17.168Z,31.9
2019-06-26T08:53:05.368Z,31.9
2019-06-26T08:58:05.352Z,32.2
2019-06-26T09:03:05.447Z,32.3
2019-06-26T09:08:05.518Z,32.5
2019-06-26T09:13:05.326Z,32.7
2019-06-26T09:18:05.272Z,32.5
2019-06-26T09:23:05.243Z,32.9
2019-06-26T09:28:05.256Z,32.9
2019-06-26T09:33:05.398Z,33.1
2019-06-26T09:38:05.301Z,33.5
2019-06-26T09:43:05.402Z,33.6
2019-06-26T09:48:05.434Z,33.7
2019-06-26T09:53:05.701Z,33.6
2019-06-26T09:58:05.396Z,33.5
2019-06-26T10:03:05.433Z,33.7
2019-06-26T10:08:05.290Z,33.5
2019-06-26T10:13:05.276Z,33.6
2019-06-26T10:18:05.436Z,33.6
2019-06-26T10:23:05.286Z,33.5
2019-06-26T10:28:05.531Z,33.8
2019-06-26T10:33:05.288Z,33.8
2019-06-26T10:38:05.310Z,33.9
2019-06-26T10:43:05.479Z,34
2019-06-26T10:48:05.362Z,34
2019-06-26T10:53:05.314Z,34
2019-06-26T10:58:05.306Z,34
2019-06-26T11:03:05.546Z,34.1
2019-06-26T11:08:05.327Z,34.2
2019-06-26T11:13:05.319Z,34.4
2019-06-26T11:18:05.350Z,34.5
2019-06-26T11:23:05.316Z,34.5
2019-06-26T11:28:05.336Z,34.9
2019-06-26T11:33:05.377Z,35.2
2019-06-26T11:38:05.325Z,35.1
2019-06-26T11:43:05.365Z,35.3
2019-06-26T11:48:05.343Z,35.2
2019-06-26T11:53:05.339Z,35.1
2019-06-26T11:58:05.354Z,35.3
2019-06-26T12:03:05.353Z,35.6
2019-06-26T12:08:05.360Z,35.5
2019-06-26T12:13:05.382Z,35.4
2019-06-26T12:18:05.531Z,35.4
2019-06-26T12:23:05.604Z,35.9
2019-06-26T12:28:05.355Z,35.7
2019-06-26T12:33:05.550Z,35.9
2019-06-26T12:38:05.489Z,35.6
2019-06-26T12:43:05.370Z,35.6
2019-06-26T12:48:05.544Z,35.6
2019-06-26T12:53:05.591Z,35.5
2019-06-26T12:58:12.895Z,35.7
2019-06-26T13:03:05.396Z,35.9
2019-06-26T13:08:05.565Z,36
2019-06-26T13:13:05.621Z,36.1
2019-06-26T13:18:05.409Z,36.2
2019-06-26T13:23:05.430Z,36.4
2019-06-26T13:28:05.389Z,36.5
2019-06-26T13:33:05.403Z,36.5
2019-06-26T13:38:05.424Z,36.6
2019-06-26T13:43:05.408Z,36.6
2019-06-26T13:48:05.410Z,36.5
2019-06-26T13:53:05.581Z,36.5
2019-06-26T13:58:05.634Z,36.4
2019-06-26T14:03:05.449Z,36.3
2019-06-26T14:08:05.481Z,36.5
2019-06-26T14:13:05.384Z,36.4
2019-06-26T14:18:05.427Z,36.4
2019-06-26T14:23:05.450Z,36.4
2019-06-26T14:28:05.676Z,36.5
2019-06-26T14:33:05.427Z,36.4
2019-06-26T14:38:05.582Z,36.5
2019-06-26T14:43:05.424Z,36.5
2019-06-26T14:48:05.680Z,36.3
2019-06-26T14:53:05.452Z,36.5
2019-06-26T14:58:05.454Z,36.2
2019-06-26T15:03:05.454Z,36.4
2019-06-26T15:08:05.462Z,36.2
2019-06-26T15:13:05.468Z,36.2
2019-06-26T15:18:05.485Z,36.2
2019-06-26T15:23:05.461Z,36
2019-06-26T15:28:05.461Z,36.2
2019-06-26T15:33:05.473Z,36
2019-06-26T15:38:05.436Z,36
2019-06-26T15:43:05.480Z,36
2019-06-26T15:48:05.483Z,35.9
2019-06-26T15:53:05.487Z,36
2019-06-26T15:58:05.482Z,36
2019-06-26T16:03:05.494Z,35.9
2019-06-26T16:08:05.485Z,35.8
2019-06-26T16:13:05.506Z,35.6
2019-06-26T16:18:05.670Z,35.5
2019-06-26T16:23:05.500Z,35.5
2019-06-26T16:28:06.124Z,35.4
2019-06-26T16:33:05.514Z,35.4
2019-06-26T16:38:05.502Z,35.3
2019-06-26T16:43:05.741Z,35.3
2019-06-26T16:48:05.665Z,35.3
2019-06-26T16:53:06.725Z,35.2
2019-06-26T16:58:05.537Z,35.1
2019-06-26T17:03:05.656Z,35.1
2019-06-26T17:08:05.526Z,35
2019-06-26T17:13:05.737Z,35
2019-06-26T17:18:05.775Z,34.8
2019-06-26T17:23:06.671Z,34.7
2019-06-26T17:28:05.730Z,34.7
2019-06-26T17:33:05.514Z,34.6
2019-06-26T17:38:05.700Z,34.5
2019-06-26T17:43:12.146Z,34.5
2019-06-26T17:48:05.585Z,34.5
2019-06-26T17:53:20.464Z,36.1
2019-06-26T17:58:05.740Z,37.2
2019-06-26T18:03:05.773Z,37.3
2019-06-26T18:08:05.570Z,37.5
2019-06-26T18:13:05.730Z,37.2
2019-06-26T18:18:05.783Z,35.7
2019-06-26T18:23:07.686Z,34.8
2019-06-26T18:28:05.742Z,34.2
2019-06-26T18:33:05.610Z,33.6
2019-06-26T18:38:05.703Z,33.2
2019-06-26T18:43:05.731Z,32.7
2019-06-26T18:48:05.605Z,32.3
2019-06-26T18:53:05.826Z,31.8
2019-06-26T18:58:05.859Z,31.5
2019-06-26T19:03:05.769Z,31.1
2019-06-26T19:08:05.603Z,30.7
2019-06-26T19:13:05.745Z,30.4
2019-06-26T19:18:05.876Z,30.1
2019-06-26T19:23:05.685Z,29.8
2019-06-26T19:28:05.857Z,29.5
2019-06-26T19:33:05.776Z,29.3
2019-06-26T19:38:05.610Z,29.1
2019-06-26T19:43:05.904Z,28.9
2019-06-26T19:48:05.752Z,28.7
2019-06-26T19:53:05.825Z,28.6
2019-06-26T19:58:05.631Z,28.4
2019-06-26T20:03:05.773Z,28.3
2019-06-26T20:08:06.375Z,28.1
2019-06-26T20:13:06.018Z,28
2019-06-26T20:18:05.766Z,27.9
2019-06-26T20:23:05.968Z,27.8
2019-06-26T20:28:05.817Z,27.7
2019-06-26T20:33:05.884Z,27.6
2019-06-26T20:38:05.629Z,27.5
2019-06-26T20:43:05.654Z,27.4
2019-06-26T20:48:05.658Z,27.3
2019-06-26T20:53:05.639Z,27.2
2019-06-26T20:58:05.682Z,27.1
2019-06-26T21:03:05.896Z,27
2019-06-26T21:08:05.714Z,26.9
2019-06-26T21:13:05.850Z,26.8
2019-06-26T21:18:05.923Z,26.7
2019-06-26T21:23:17.672Z,26.6
2019-06-26T21:28:05.844Z,26.5
2019-06-26T21:33:05.894Z,26.4
2019-06-26T21:38:05.920Z,26.3
2019-06-26T21:43:05.843Z,26.2
2019-06-26T21:48:05.876Z,26.1
2019-06-26T21:53:05.891Z,26
2019-06-26T21:58:05.843Z,26
2019-06-26T22:03:05.879Z,25.9
2019-06-26T22:08:06.048Z,25.8
2019-06-26T22:13:05.712Z,25.8
2019-06-26T22:18:05.882Z,25.7
2019-06-26T22:23:05.854Z,25.7
2019-06-26T22:28:05.844Z,25.6
2019-06-26T22:33:05.884Z,25.6
2019-06-26T22:38:05.765Z,25.5
2019-06-26T22:43:05.964Z,25.5
2019-06-26T22:48:05.845Z,25.5
2019-06-26T22:53:05.867Z,25.4
2019-06-26T22:58:05.957Z,25.3
2019-06-26T23:03:05.885Z,25.3
2019-06-26T23:08:05.744Z,25.3
2019-06-26T23:13:09.410Z,25.2
2019-06-26T23:18:05.897Z,25.2
2019-06-26T23:23:05.919Z,25.1
2019-06-26T23:28:05.962Z,25.1
2019-06-26T23:33:05.751Z,25.1
2019-06-26T23:38:05.922Z,25
2019-06-26T23:43:05.973Z,25
2019-06-26T23:48:05.997Z,25
2019-06-26T23:53:05.881Z,24.9
2019-06-26T23:58:05.962Z,24.9
